Time;durP1;ratioP1;P1;durP2;ratioP2;P2;SDS_P1;SDS_P2;PMS_P1;PMS_P2;Temp;Humidity;BMP_temperature;BMP_pressure;BME280_temperature;BME280_humidity;BME280_pressure;Samples;Min_cycle;Max_cycle;Signal;HPM_P1;HPM_P2
2022/06/24 00:01:59;;;;;;;2.50;1.92;;;18.70;95.40;;;;;;5027854;28;20235;-88
2022/06/24 00:04:27;;;;;;;2.38;2.17;;;18.60;95.40;;;;;;5039643;28;20232;-88
2022/06/24 00:06:54;;;;;;;2.17;1.98;;;18.60;95.40;;;;;;5044835;28;20314;-88
2022/06/24 00:09:21;;;;;;;2.80;1.98;;;18.50;95.40;;;;;;5040344;28;20318;-87
2022/06/24 00:12:06;;;;;;;2.80;1.95;;;18.50;95.40;;;;;;5023078;28;20230;-87
2022/06/24 00:14:33;;;;;;;3.75;2.00;;;18.50;95.60;;;;;;5026294;28;20247;-88
2022/06/24 00:17:01;;;;;;;3.15;1.90;;;18.50;95.30;;;;;;5045462;28;20232;-87
2022/06/24 00:19:30;;;;;;;4.40;2.38;;;18.40;95.40;;;;;;5042708;28;20315;-87
2022/06/24 00:22:01;;;;;;;4.97;2.15;;;18.40;95.40;;;;;;5043841;28;20220;-88
2022/06/24 00:24:29;;;;;;;3.88;2.25;;;18.40;95.60;;;;;;5025005;28;20234;-88
2022/06/24 00:26:56;;;;;;;3.38;2.00;;;18.30;95.40;;;;;;5024659;28;20224;-88
2022/06/24 00:29:28;;;;;;;2.55;2.00;;;18.30;95.40;;;;;;5025632;28;20277;-89
2022/06/24 00:32:06;;;;;;;3.90;2.30;;;18.30;95.60;;;;;;5043806;28;20216;-88
2022/06/24 00:34:34;;;;;;;2.63;2.00;;;18.20;95.70;;;;;;5038254;28;20224;-87
2022/06/24 00:37:21;;;;;;;3.13;2.05;;;18.20;95.50;;;;;;5026340;28;20247;-87
2022/06/24 00:39:48;;;;;;;3.13;2.08;;;18.20;95.90;;;;;;5043422;28;20230;-88
2022/06/24 00:42:16;;;;;;;2.53;2.28;;;18.10;95.60;;;;;;5044199;28;20216;-87
2022/06/24 00:44:51;;;;;;;3.90;2.10;;;18.10;95.70;;;;;;5022110;28;20507;-87
2022/06/24 00:47:18;;;;;;;3.25;2.00;;;18.00;95.90;;;;;;5039334;28;20220;-87
2022/06/24 00:49:48;;;;;;;2.55;2.25;;;18.00;95.70;;;;;;5042508;28;20227;-87
2022/06/24 00:52:15;;;;;;;2.05;1.92;;;18.00;95.90;;;;;;5044713;28;20266;-88
2022/06/24 00:54:44;;;;;;;2.30;2.10;;;17.90;95.90;;;;;;5044854;28;20238;-88
2022/06/24 00:57:11;;;;;;;3.65;2.45;;;17.90;96.10;;;;;;5044091;28;20244;-88
2022/06/24 00:59:39;;;;;;;2.85;2.10;;;17.80;95.90;;;;;;5044159;28;20224;-88
2022/06/24 01:02:08;;;;;;;4.28;2.30;;;17.80;96.00;;;;;;5043519;28;20216;-89
2022/06/24 01:04:35;;;;;;;3.13;2.30;;;17.70;96.00;;;;;;5045973;28;20888;-89
2022/06/24 01:07:02;;;;;;;2.20;1.92;;;17.70;96.10;;;;;;5043778;28;20260;-89
2022/06/24 01:09:29;;;;;;;2.67;2.13;;;17.70;96.20;;;;;;5044816;28;20619;-87
2022/06/24 01:11:56;;;;;;;2.33;2.10;;;17.60;96.20;;;;;;5027857;28;20216;-89
2022/06/24 01:14:22;;;;;;;2.90;2.30;;;17.60;96.30;;;;;;5043728;28;20308;-90
2022/06/24 01:16:50;;;;;;;2.22;1.80;;;17.60;96.40;;;;;;5025368;28;20345;-88
2022/06/24 01:19:18;;;;;;;2.72;1.90;;;17.50;96.30;;;;;;5031825;28;20226;-88
2022/06/24 01:21:48;;;;;;;2.47;2.15;;;17.50;96.40;;;;;;5048882;28;20242;-88
2022/06/24 01:24:16;;;;;;;4.40;2.03;;;17.50;96.60;;;;;;5043274;28;20228;-88
2022/06/24 01:26:45;;;;;;;2.45;2.05;;;17.40;96.50;;;;;;5044918;28;20234;-90
2022/06/24 01:29:12;;;;;;;4.55;2.00;;;17.40;96.60;;;;;;5040385;28;20226;-90
2022/06/24 01:31:40;;;;;;;2.85;2.15;;;17.30;96.60;;;;;;5047742;28;20707;-90
2022/06/24 01:34:07;;;;;;;2.17;1.98;;;17.30;96.70;;;;;;5026565;28;20307;-90
2022/06/24 01:36:34;;;;;;;2.63;2.30;;;17.30;96.70;;;;;;5028945;28;20235;-90
2022/06/24 01:39:02;;;;;;;3.20;2.00;;;17.30;96.70;;;;;;5029458;28;20221;-90
2022/06/24 01:41:29;;;;;;;2.40;2.10;;;17.20;96.80;;;;;;5041070;28;20224;-90
2022/06/24 01:43:56;;;;;;;3.42;2.10;;;17.20;96.70;;;;;;5044717;28;20302;-91
2022/06/24 01:46:23;;;;;;;3.65;2.33;;;17.20;96.80;;;;;;5040386;28;20328;-91
2022/06/24 01:48:50;;;;;;;2.80;2.13;;;17.20;96.90;;;;;;5046983;28;20239;-90
2022/06/24 01:51:18;;;;;;;5.78;1.85;;;17.10;96.90;;;;;;5030470;28;20238;-90
2022/06/24 01:53:45;;;;;;;6.50;2.20;;;17.10;97.00;;;;;;5024156;28;20231;-90
2022/06/24 01:56:13;;;;;;;3.15;2.10;;;17.20;97.00;;;;;;5027722;28;20269;-88
2022/06/24 01:58:40;;;;;;;2.25;1.90;;;17.10;97.10;;;;;;5046971;28;20963;-90
2022/06/24 02:01:06;;;;;;;3.85;1.98;;;17.10;97.00;;;;;;5030769;28;20311;-89
2022/06/24 02:03:34;;;;;;;2.10;1.92;;;17.00;97.00;;;;;;5027611;28;20236;-88
2022/06/24 02:06:04;;;;;;;6.03;2.30;;;17.10;97.20;;;;;;5043771;28;20712;-89
2022/06/24 02:08:30;;;;;;;2.70;1.98;;;17.00;97.20;;;;;;5039466;28;20280;-89
2022/06/24 02:13:44;;;;;;;3.13;2.00;;;17.00;97.20;;;;;;5026603;28;20307;-90
2022/06/24 02:16:12;;;;;;;3.22;2.20;;;17.00;97.40;;;;;;5044635;28;20776;-90
2022/06/24 02:18:38;;;;;;;3.17;2.13;;;16.90;97.20;;;;;;5047879;28;20311;-89
2022/06/24 02:21:05;;;;;;;2.78;1.95;;;16.90;97.20;;;;;;5040056;28;20234;-91
2022/06/24 02:23:32;;;;;;;3.65;2.10;;;16.90;97.30;;;;;;5030015;28;20963;-91
2022/06/24 02:25:59;;;;;;;2.80;2.20;;;16.90;97.30;;;;;;5035234;28;20599;-89
2022/06/24 02:28:26;;;;;;;2.85;2.20;;;16.90;97.30;;;;;;5031757;28;20311;-90
2022/06/24 02:30:56;;;;;;;3.43;2.20;;;16.80;97.30;;;;;;5042697;28;20243;-90
2022/06/24 02:33:23;;;;;;;2.53;2.27;;;16.80;97.40;;;;;;5025381;28;20231;-90
2022/06/24 02:36:06;;;;;;;3.47;2.15;;;16.80;97.30;;;;;;5054757;28;20723;-91
2022/06/24 02:38:34;;;;;;;2.60;2.13;;;16.80;97.60;;;;;;5029163;28;20224;-89
2022/06/24 02:41:01;;;;;;;3.40;2.17;;;16.80;97.30;;;;;;5028922;28;20681;-89
2022/06/24 02:43:29;;;;;;;2.65;2.17;;;16.80;97.30;;;;;;5046653;28;20301;-89
2022/06/24 02:45:59;;;;;;;4.97;2.27;;;16.80;97.40;;;;;;5050661;28;20246;-91
2022/06/24 02:48:27;;;;;;;2.37;2.03;;;16.80;97.50;;;;;;5045698;28;20665;-91
2022/06/24 02:50:56;;;;;;;2.37;1.93;;;16.70;97.40;;;;;;5047267;28;20251;-91
2022/06/24 02:53:23;;;;;;;4.33;2.03;;;16.70;97.50;;;;;;5035574;28;20996;-89
2022/06/24 02:55:52;;;;;;;7.63;2.70;;;16.70;97.40;;;;;;5031158;28;20224;-89
2022/06/24 02:58:19;;;;;;;2.40;2.08;;;16.70;97.40;;;;;;5046248;28;20228;-89
2022/06/24 03:00:46;;;;;;;3.65;2.30;;;16.70;97.40;;;;;;5043422;28;21058;-89
2022/06/24 03:03:15;;;;;;;3.33;2.08;;;16.70;97.40;;;;;;5046108;28;20231;-89
2022/06/24 03:05:42;;;;;;;2.45;2.25;;;16.60;97.60;;;;;;5030165;28;20719;-89
2022/06/24 03:08:10;;;;;;;3.03;2.33;;;16.70;97.60;;;;;;5046460;28;20278;-89
2022/06/24 03:10:38;;;;;;;4.97;2.50;;;16.60;97.60;;;;;;5052695;28;20254;-89
2022/06/24 03:13:05;;;;;;;3.45;2.45;;;16.60;97.60;;;;;;5051599;28;20224;-91
2022/06/24 03:15:32;;;;;;;2.40;2.20;;;16.60;97.60;;;;;;5030118;28;20294;-89
2022/06/24 03:17:59;;;;;;;2.50;1.98;;;16.60;97.70;;;;;;5038915;28;20250;-90
2022/06/24 03:20:28;;;;;;;2.38;2.13;;;16.60;97.70;;;;;;5048822;28;20220;-89
2022/06/24 03:22:55;;;;;;;2.97;2.47;;;16.60;97.80;;;;;;5041134;28;20828;-90
2022/06/24 03:25:22;;;;;;;2.53;2.20;;;16.60;97.70;;;;;;5036973;28;20223;-90
2022/06/24 03:27:49;;;;;;;7.38;2.42;;;16.60;97.70;;;;;;5052815;28;20254;-91
2022/06/24 03:30:16;;;;;;;3.43;2.20;;;16.60;97.70;;;;;;5051119;28;20943;-90
2022/06/24 03:32:43;;;;;;;4.00;2.45;;;16.60;97.80;;;;;;5045007;28;20342;-91
2022/06/24 03:35:10;;;;;;;3.63;2.25;;;16.60;97.80;;;;;;5028593;28;20228;-91
2022/06/24 03:37:38;;;;;;;3.28;2.25;;;16.60;97.80;;;;;;5031214;28;20220;-91
2022/06/24 03:40:06;;;;;;;2.58;2.35;;;16.70;97.90;;;;;;5044692;28;20811;-91
2022/06/24 03:42:34;;;;;;;3.70;2.30;;;16.70;97.90;;;;;;5028864;28;20226;-91
2022/06/24 03:45:01;;;;;;;5.45;2.20;;;16.70;97.90;;;;;;5025814;28;20698;-89
2022/06/24 03:47:31;;;;;;;3.33;2.50;;;16.70;97.80;;;;;;5028785;28;20224;-90
2022/06/24 03:49:57;;;;;;;3.20;2.35;;;16.70;97.90;;;;;;5028719;28;20220;-90
2022/06/24 03:52:24;;;;;;;2.77;2.30;;;16.70;97.90;;;;;;5026248;28;20933;-90
2022/06/24 03:55:00;;;;;;;3.22;2.10;;;16.80;98.00;;;;;;5026623;28;20247;-88
2022/06/24 03:57:27;;;;;;;3.23;2.37;;;16.80;98.20;;;;;;5037190;28;20326;-91
2022/06/24 03:59:53;;;;;;;3.20;2.40;;;16.90;98.00;;;;;;5031305;28;20227;-90
2022/06/24 04:02:21;;;;;;;3.63;2.40;;;16.90;98.00;;;;;;5035223;28;20220;-91
2022/06/24 04:04:48;;;;;;;3.28;2.50;;;16.90;97.90;;;;;;5044073;28;20235;-91
2022/06/24 04:07:15;;;;;;;2.50;2.30;;;17.00;97.90;;;;;;5020978;28;20216;-91
2022/06/24 04:09:41;;;;;;;4.43;2.67;;;17.00;97.90;;;;;;5029296;28;20311;-91
2022/06/24 04:12:12;;;;;;;5.07;2.70;;;17.10;97.90;;;;;;5030280;28;20746;-89
2022/06/24 04:17:23;;;;;;;2.97;2.63;;;17.20;97.90;;;;;;5048186;28;20216;-91
2022/06/24 04:19:52;;;;;;;2.58;2.35;;;17.30;97.80;;;;;;5031122;28;20577;-90
2022/06/24 04:22:19;;;;;;;2.53;2.33;;;17.30;97.80;;;;;;5026016;28;20286;-90
2022/06/24 04:24:46;;;;;;;2.97;2.38;;;17.30;97.80;;;;;;5032718;28;20605;-91
2022/06/24 04:27:14;;;;;;;3.97;2.58;;;17.30;97.80;;;;;;5034066;28;20230;-91
2022/06/24 04:29:41;;;;;;;3.67;2.70;;;17.40;97.80;;;;;;5032764;28;20235;-91
2022/06/24 04:32:08;;;;;;;3.25;2.95;;;17.50;97.80;;;;;;5029459;28;20228;-91
2022/06/24 04:34:37;;;;;;;3.55;2.80;;;17.50;97.70;;;;;;5031179;28;20239;-91
2022/06/24 04:37:04;;;;;;;5.10;2.60;;;17.50;97.70;;;;;;5029546;28;20263;-91
2022/06/24 04:39:30;;;;;;;4.20;2.63;;;17.60;97.70;;;;;;5049566;28;20304;-91
2022/06/24 04:41:57;;;;;;;3.40;2.75;;;17.60;97.60;;;;;;5030688;28;20225;-91
2022/06/24 04:44:25;;;;;;;4.68;2.53;;;17.70;97.50;;;;;;5035087;28;20314;-92
2022/06/24 04:46:52;;;;;;;3.30;2.60;;;17.70;97.50;;;;;;5027642;28;20259;-91
2022/06/24 04:49:19;;;;;;;2.97;2.63;;;17.80;97.50;;;;;;5027579;28;20228;-91
2022/06/24 04:51:48;;;;;;;3.90;2.67;;;17.80;97.50;;;;;;5036484;28;20234;-91
2022/06/24 04:54:15;;;;;;;4.13;2.83;;;17.90;97.50;;;;;;5039165;28;20312;-91
2022/06/24 04:56:42;;;;;;;2.85;2.60;;;17.90;97.50;;;;;;5030040;28;20386;-89
2022/06/24 04:59:09;;;;;;;2.65;2.40;;;18.00;97.50;;;;;;5042503;28;20308;-89
2022/06/24 05:01:37;;;;;;;3.53;2.47;;;18.00;97.50;;;;;;5026714;28;20299;-90
2022/06/24 05:04:06;;;;;;;3.85;2.78;;;18.10;97.50;;;;;;5024349;28;20232;-94
2022/06/24 05:06:34;;;;;;;4.05;2.80;;;18.10;97.50;;;;;;5055814;28;20224;-96
2022/06/24 05:09:00;;;;;;;4.32;2.78;;;18.20;97.40;;;;;;5049864;22;20232;-82
2022/06/24 05:11:27;;;;;;;3.47;2.90;;;18.20;97.40;;;;;;5065591;28;20736;-82
2022/06/24 05:13:54;;;;;;;3.97;2.67;;;18.30;97.40;;;;;;5057314;28;20530;-82
2022/06/24 05:16:21;;;;;;;4.70;3.30;;;18.30;97.20;;;;;;5063767;28;20223;-83
2022/06/24 05:18:49;;;;;;;3.15;2.80;;;18.40;97.20;;;;;;5066262;28;20229;-82
2022/06/24 05:21:15;;;;;;;4.63;2.83;;;18.40;97.20;;;;;;5062444;28;20239;-83
2022/06/24 05:23:42;;;;;;;3.63;2.70;;;18.50;97.10;;;;;;5047889;28;20227;-82
2022/06/24 05:26:09;;;;;;;5.78;3.00;;;18.60;97.10;;;;;;5057977;28;20224;-82
2022/06/24 05:28:36;;;;;;;3.03;2.72;;;18.60;96.90;;;;;;5049480;28;20247;-82
2022/06/24 05:31:03;;;;;;;5.00;2.90;;;18.70;96.90;;;;;;5074394;28;20233;-82
2022/06/24 05:33:30;;;;;;;4.57;2.78;;;18.70;96.90;;;;;;5071292;28;20230;-83
2022/06/24 05:35:58;;;;;;;5.80;3.28;;;18.80;96.70;;;;;;5040922;28;20592;-83
2022/06/24 05:38:25;;;;;;;4.50;3.13;;;18.80;96.60;;;;;;5072391;28;20215;-85
2022/06/24 05:40:53;;;;;;;2.85;2.58;;;18.90;96.60;;;;;;5036632;28;21267;-84
2022/06/24 05:43:19;;;;;;;4.57;2.95;;;19.00;96.70;;;;;;5056187;28;20290;-84
2022/06/24 05:45:46;;;;;;;4.38;2.50;;;19.00;96.50;;;;;;5040323;28;20691;-84
2022/06/24 05:48:13;;;;;;;5.20;3.22;;;19.10;96.70;;;;;;5043852;28;20328;-85
2022/06/24 05:50:41;;;;;;;3.58;3.13;;;19.10;96.20;;;;;;5063926;28;20232;-84
2022/06/24 05:55:58;;;;;;;5.65;3.05;;;19.30;96.30;;;;;;5072639;28;20228;-84
2022/06/24 05:58:25;;;;;;;4.18;3.08;;;19.40;96.20;;;;;;5061607;28;20227;-83
2022/06/24 06:00:52;;;;;;;3.15;2.67;;;19.50;96.10;;;;;;5073686;28;20230;-84
2022/06/24 06:03:18;;;;;;;3.13;2.92;;;19.50;96.10;;;;;;5051550;28;20643;-84
2022/06/24 06:05:45;;;;;;;4.03;3.10;;;19.60;95.90;;;;;;5059397;28;20227;-83
2022/06/24 06:08:13;;;;;;;3.38;3.08;;;19.70;95.80;;;;;;5064683;28;20218;-82
2022/06/24 06:10:40;;;;;;;4.13;2.60;;;19.80;95.80;;;;;;5074412;28;20227;-84
2022/06/24 06:13:07;;;;;;;3.33;3.03;;;19.90;95.80;;;;;;5062388;28;20203;-83
2022/06/24 06:15:34;;;;;;;3.47;2.90;;;20.00;95.70;;;;;;5073978;28;20224;-82
2022/06/24 06:18:01;;;;;;;5.15;3.03;;;20.10;95.40;;;;;;5074501;28;20230;-84
2022/06/24 06:20:28;;;;;;;5.82;3.40;;;20.20;95.40;;;;;;5083630;28;20229;-84
2022/06/24 06:22:54;;;;;;;3.70;3.13;;;20.20;95.20;;;;;;5069406;28;20239;-84
2022/06/24 06:25:24;;;;;;;4.05;2.95;;;20.40;95.10;;;;;;5055425;28;20226;-83
2022/06/24 06:27:51;;;;;;;4.13;3.10;;;20.50;95.00;;;;;;5063650;28;20291;-86
2022/06/24 06:30:18;;;;;;;3.70;3.08;;;20.70;94.80;;;;;;5067926;28;20238;-87
2022/06/24 06:32:45;;;;;;;3.42;3.10;;;20.90;94.50;;;;;;5079549;28;20233;-84
2022/06/24 06:35:11;;;;;;;4.03;3.20;;;21.00;94.40;;;;;;5059138;28;20292;-83
2022/06/24 06:37:38;;;;;;;3.47;2.92;;;21.30;94.10;;;;;;5039780;28;20221;-83
2022/06/24 06:40:06;;;;;;;3.08;2.78;;;21.50;93.80;;;;;;5056390;28;20607;-84
2022/06/24 06:42:34;;;;;;;3.05;2.83;;;21.70;93.70;;;;;;5079799;28;20682;-83
2022/06/24 06:45:01;;;;;;;5.05;3.33;;;22.00;93.20;;;;;;5077519;28;20223;-84
2022/06/24 06:47:27;;;;;;;3.40;2.80;;;22.20;92.30;;;;;;5061702;28;20215;-81
2022/06/24 06:49:54;;;;;;;3.22;2.80;;;22.50;92.60;;;;;;5044403;28;20234;-84
2022/06/24 06:52:21;;;;;;;4.78;2.88;;;22.70;92.10;;;;;;5059769;28;21010;-84
2022/06/24 06:54:48;;;;;;;2.80;2.60;;;22.90;91.80;;;;;;5040879;28;20240;-84
2022/06/24 06:57:15;;;;;;;4.47;2.67;;;23.10;90.90;;;;;;5024721;28;20299;-84
2022/06/24 06:59:43;;;;;;;3.28;2.97;;;23.30;90.50;;;;;;5057502;28;20231;-84
2022/06/24 07:02:10;;;;;;;4.50;2.83;;;23.60;88.60;;;;;;5047743;28;20722;-84
2022/06/24 07:04:36;;;;;;;3.47;2.95;;;23.70;89.90;;;;;;5046907;28;20242;-84
2022/06/24 07:07:03;;;;;;;3.95;2.83;;;24.00;89.80;;;;;;5058948;28;20219;-85
2022/06/24 07:09:30;;;;;;;3.40;2.90;;;24.40;87.80;;;;;;5051479;28;20230;-89
2022/06/24 07:11:57;;;;;;;6.05;3.05;;;24.70;88.20;;;;;;5066129;28;20227;-79
2022/06/24 07:14:23;;;;;;;4.75;3.45;;;25.20;86.90;;;;;;5056360;28;20285;-79
2022/06/24 07:16:51;;;;;;;4.53;3.03;;;25.40;83.10;;;;;;5061465;28;20237;-79
2022/06/24 07:19:18;;;;;;;5.13;3.17;;;25.60;81.50;;;;;;5083223;28;20229;-79
2022/06/24 07:21:45;;;;;;;4.72;2.80;;;25.70;81.10;;;;;;5088947;28;20660;-79
2022/06/24 07:24:11;;;;;;;3.65;3.17;;;25.70;80.80;;;;;;5072922;28;20358;-79
2022/06/24 07:26:38;;;;;;;3.10;2.65;;;25.70;79.80;;;;;;5067023;28;20802;-79
2022/06/24 07:29:05;;;;;;;3.20;2.80;;;25.70;80.20;;;;;;5076879;28;20224;-79
2022/06/24 07:31:31;;;;;;;4.47;3.05;;;25.70;79.80;;;;;;5074344;28;20227;-79
2022/06/24 07:33:59;;;;;;;3.70;2.72;;;25.90;80.10;;;;;;5065971;28;20711;-79
2022/06/24 07:36:26;;;;;;;3.75;2.72;;;26.20;80.10;;;;;;5053469;28;20231;-79
2022/06/24 07:38:53;;;;;;;3.60;2.95;;;26.50;78.40;;;;;;5058671;28;20227;-79
2022/06/24 07:41:19;;;;;;;4.50;3.25;;;26.80;77.80;;;;;;5064893;28;20222;-79
2022/06/24 07:43:46;;;;;;;5.10;3.17;;;27.10;78.20;;;;;;5058770;28;20711;-79
2022/06/24 07:46:13;;;;;;;5.05;2.75;;;27.50;76.90;;;;;;5051856;28;20310;-79
2022/06/24 07:48:40;;;;;;;6.57;3.30;;;27.90;76.80;;;;;;5076642;28;20227;-79
2022/06/24 07:51:13;;;;;;;4.30;2.88;;;28.30;74.80;;;;;;5070754;28;20300;-79
2022/06/24 07:53:40;;;;;;;5.15;3.00;;;28.70;74.30;;;;;;5079884;28;20232;-79
2022/06/24 07:58:51;;;;;;;4.10;2.80;;;29.50;73.40;;;;;;5070922;28;20222;-79
2022/06/24 08:01:18;;;;;;;3.67;3.00;;;30.00;72.30;;;;;;5041216;28;20224;-79
2022/06/24 08:03:45;;;;;;;3.67;2.67;;;30.40;71.00;;;;;;5071170;28;20269;-79
2022/06/24 08:06:13;;;;;;;4.43;2.63;;;30.90;69.10;;;;;;5059833;28;20238;-79
2022/06/24 08:08:40;;;;;;;4.57;2.90;;;31.30;67.90;;;;;;5058918;28;20229;-79
2022/06/24 08:11:07;;;;;;;4.05;2.75;;;31.70;66.40;;;;;;5058940;28;20784;-79
2022/06/24 08:13:34;;;;;;;4.18;2.78;;;32.00;63.80;;;;;;5056981;28;20699;-79
2022/06/24 08:16:01;;;;;;;4.22;3.00;;;32.30;61.70;;;;;;5068610;28;21117;-79
2022/06/24 08:18:27;;;;;;;3.53;2.72;;;32.40;61.00;;;;;;5056112;28;20237;-79
2022/06/24 08:20:54;;;;;;;3.95;2.85;;;32.50;60.30;;;;;;5061601;28;20225;-79
2022/06/24 08:23:22;;;;;;;5.15;3.20;;;32.60;60.30;;;;;;5080598;28;20227;-79
2022/06/24 08:25:49;;;;;;;4.70;2.95;;;32.60;58.40;;;;;;5080048;28;20711;-79
2022/06/24 08:28:16;;;;;;;4.03;2.58;;;32.70;58.20;;;;;;5072522;28;20222;-79
2022/06/24 08:30:43;;;;;;;4.25;2.90;;;32.70;57.90;;;;;;5043955;28;20236;-78
2022/06/24 08:33:09;;;;;;;3.45;2.78;;;32.70;58.40;;;;;;5062196;28;20231;-79
2022/06/24 08:35:36;;;;;;;3.15;2.85;;;32.70;58.30;;;;;;5026459;28;20255;-79
2022/06/24 08:38:03;;;;;;;3.85;2.92;;;32.80;58.80;;;;;;5054209;28;20219;-79
2022/06/24 08:40:31;;;;;;;3.38;2.78;;;32.90;58.10;;;;;;5066343;28;20227;-79
2022/06/24 08:42:59;;;;;;;6.20;3.40;;;33.20;58.10;;;;;;5072903;28;21050;-79
2022/06/24 08:45:26;;;;;;;5.18;2.90;;;33.50;57.50;;;;;;5064202;28;20235;-79
2022/06/24 08:47:53;;;;;;;4.15;3.03;;;33.80;56.00;;;;;;5058324;28;20226;-79
2022/06/24 08:50:21;;;;;;;4.22;3.13;;;34.00;54.80;;;;;;5069224;28;20273;-79
2022/06/24 08:52:49;;;;;;;3.53;2.97;;;34.20;55.30;;;;;;5076356;28;20222;-79
2022/06/24 08:55:18;;;;;;;4.13;3.05;;;34.30;54.40;;;;;;5063659;28;20733;-79
2022/06/24 08:57:47;;;;;;;3.50;3.20;;;34.40;54.00;;;;;;5065681;28;20223;-80
2022/06/24 09:00:15;;;;;;;4.05;3.10;;;34.30;53.10;;;;;;5049558;28;20227;-79
2022/06/24 09:02:42;;;;;;;3.97;3.10;;;34.30;53.60;;;;;;5051531;28;20334;-79
2022/06/24 09:05:11;;;;;;;3.33;3.00;;;34.20;53.10;;;;;;5052922;22;20273;-82
2022/06/24 09:07:39;;;;;;;3.72;3.25;;;34.20;53.30;;;;;;5064468;28;20227;-83
2022/06/24 09:10:10;;;;;;;3.90;3.15;;;34.20;52.90;;;;;;5054621;28;20235;-83
2022/06/24 09:12:38;;;;;;;3.55;3.15;;;34.20;53.50;;;;;;5071480;28;20224;-83
2022/06/24 09:15:08;;;;;;;3.30;3.10;;;34.30;54.80;;;;;;5062331;28;20703;-83
2022/06/24 09:17:38;;;;;;;3.90;3.17;;;34.60;54.20;;;;;;5047353;28;20223;-83
2022/06/24 09:20:08;;;;;;;3.47;3.17;;;35.00;53.90;;;;;;5059365;28;20223;-83
2022/06/24 09:22:35;;;;;;;4.30;3.08;;;35.40;52.90;;;;;;5053810;28;20234;-82
2022/06/24 09:25:03;;;;;;;3.60;3.30;;;35.80;52.60;;;;;;5076979;28;20317;-83
2022/06/24 09:27:30;;;;;;;4.38;2.90;;;36.10;52.60;;;;;;5046840;28;20231;-82
2022/06/24 09:29:57;;;;;;;3.47;3.08;;;36.30;51.80;;;;;;5058343;28;20339;-83
2022/06/24 09:32:26;;;;;;;4.30;3.20;;;36.50;51.80;;;;;;5039909;28;20231;-83
2022/06/24 09:35:00;;;;;;;4.20;3.35;;;36.80;51.20;;;;;;5063757;28;20242;-83
2022/06/24 09:37:40;;;;;;;5.43;3.20;;;37.00;50.80;;;;;;5062123;28;20268;-83
2022/06/24 09:40:23;;;;;;;3.42;2.95;;;37.50;50.50;;;;;;5077500;28;20223;-83
2022/06/24 09:42:59;;;;;;;4.30;2.75;;;37.80;50.10;;;;;;5046092;28;20339;-83
2022/06/24 09:45:28;;;;;;;5.75;3.30;;;38.20;49.70;;;;;;5070292;28;20301;-83
2022/06/24 09:47:58;;;;;;;4.43;3.28;;;38.60;48.70;;;;;;5062617;28;20219;-82
2022/06/24 09:50:25;;;;;;;4.38;3.30;;;38.80;48.10;;;;;;5041242;28;20256;-82
2022/06/24 09:52:53;;;;;;;4.10;3.58;;;39.10;47.80;;;;;;5058182;28;20230;-83
2022/06/24 09:55:20;;;;;;;4.10;2.90;;;39.20;47.90;;;;;;5049000;28;20235;-82
2022/06/24 09:57:47;;;;;;;3.60;3.30;;;39.30;47.60;;;;;;5061095;28;20239;-82
2022/06/24 10:03:03;;;;;;;3.53;3.10;;;39.60;46.30;;;;;;5059868;28;20239;-83
2022/06/24 10:05:35;;;;;;;4.78;3.22;;;39.70;45.70;;;;;;5061358;28;20246;-83
2022/06/24 10:08:04;;;;;;;4.18;3.05;;;39.80;45.10;;;;;;5058945;28;20223;-82
2022/06/24 10:10:33;;;;;;;5.10;3.30;;;39.90;44.60;;;;;;5056744;28;20227;-83
2022/06/24 10:13:05;;;;;;;3.00;2.80;;;40.10;44.90;;;;;;5053345;28;20223;-82
2022/06/24 10:15:32;;;;;;;3.92;2.92;;;40.10;44.30;;;;;;5057402;28;20235;-82
2022/06/24 10:18:01;;;;;;;3.80;2.90;;;40.30;44.80;;;;;;5045415;28;20225;-82
2022/06/24 10:20:28;;;;;;;4.65;2.90;;;40.40;41.70;;;;;;5063643;28;20227;-82
2022/06/24 10:22:57;;;;;;;3.17;2.88;;;40.40;42.30;;;;;;5056268;28;20239;-82
2022/06/24 10:25:53;;;;;;;3.88;2.95;;;40.20;42.10;;;;;;5064158;28;20348;-83
2022/06/24 10:28:20;;;;;;;3.90;3.47;;;39.90;42.80;;;;;;5059327;28;20228;-82
2022/06/24 10:30:58;;;;;;;4.78;3.20;;;39.80;42.30;;;;;;5046072;28;20230;-82
2022/06/24 10:33:31;;;;;;;3.47;2.90;;;39.60;41.60;;;;;;5064166;28;20224;-82
2022/06/24 10:36:00;;;;;;;4.28;3.10;;;39.30;41.50;;;;;;5056207;28;20223;-82
2022/06/24 10:38:36;;;;;;;5.90;3.17;;;39.10;41.30;;;;;;5061018;28;20294;-82
2022/06/24 10:41:04;;;;;;;5.28;3.35;;;38.80;41.10;;;;;;5044849;28;20241;-82
2022/06/24 10:43:39;;;;;;;5.03;3.60;;;38.50;41.50;;;;;;5050797;28;20298;-82
2022/06/24 10:46:21;;;;;;;4.75;3.35;;;38.10;41.80;;;;;;5064939;28;20223;-82
2022/06/24 10:49:02;;;;;;;3.50;3.17;;;37.70;42.60;;;;;;5066125;28;20231;-82
2022/06/24 10:51:32;;;;;;;5.03;3.08;;;37.40;43.00;;;;;;5063035;28;20333;-82
2022/06/24 10:54:16;;;;;;;4.43;3.10;;;37.30;43.80;;;;;;5064089;28;20224;-82
2022/06/24 10:56:46;;;;;;;4.72;3.55;;;37.20;43.90;;;;;;5027915;28;20715;-82
2022/06/24 10:59:14;;;;;;;4.88;3.40;;;37.20;43.20;;;;;;5055550;28;20219;-82
2022/06/24 11:01:42;;;;;;;4.68;3.53;;;37.10;43.00;;;;;;5060811;28;20227;-82
2022/06/24 11:04:14;;;;;;;3.55;3.15;;;36.90;43.10;;;;;;5070248;28;20277;-82
2022/06/24 11:06:41;;;;;;;4.10;3.70;;;36.70;43.40;;;;;;5040280;28;20215;-82
2022/06/24 11:09:08;;;;;;;3.88;3.58;;;36.60;44.10;;;;;;5055967;28;20624;-82
2022/06/24 11:11:36;;;;;;;4.93;3.60;;;36.50;44.20;;;;;;5048195;28;20231;-82
2022/06/24 11:14:24;;;;;;;3.97;3.58;;;36.60;45.00;;;;;;5049247;28;20310;-82
2022/06/24 11:16:50;;;;;;;4.32;3.80;;;36.60;44.10;;;;;;5051051;28;20231;-82
2022/06/24 11:19:19;;;;;;;4.80;4.20;;;36.60;43.90;;;;;;5049626;28;20565;-82
2022/06/24 11:21:47;;;;;;;3.70;3.40;;;36.50;43.70;;;;;;5061652;28;20311;-82
2022/06/24 11:24:16;;;;;;;4.38;3.63;;;36.50;44.20;;;;;;5048996;28;20230;-82
2022/06/24 11:27:02;;;;;;;4.22;3.70;;;36.30;44.20;;;;;;5067447;28;20231;-83
2022/06/24 11:29:48;;;;;;;6.50;3.65;;;36.20;44.70;;;;;;5069946;28;20261;-83
2022/06/24 11:32:15;;;;;;;3.90;3.58;;;36.00;44.60;;;;;;5069092;28;20237;-85
2022/06/24 11:34:43;;;;;;;5.47;3.78;;;35.90;44.60;;;;;;5052028;28;20232;-84
2022/06/24 11:37:11;;;;;;;3.90;3.50;;;35.80;44.90;;;;;;5050121;28;20238;-85
2022/06/24 11:39:38;;;;;;;4.10;3.70;;;35.70;45.00;;;;;;5049823;28;20308;-85
2022/06/24 11:42:05;;;;;;;3.97;3.67;;;35.70;45.30;;;;;;5062627;28;20374;-85
2022/06/24 11:44:34;;;;;;;3.85;3.55;;;35.70;44.40;;;;;;5030098;28;20245;-83
2022/06/24 11:47:00;;;;;;;4.78;4.38;;;35.80;44.60;;;;;;5060054;28;20654;-83
2022/06/24 11:49:29;;;;;;;4.70;3.78;;;35.80;44.30;;;;;;5054955;28;20229;-82
2022/06/24 11:51:57;;;;;;;4.45;3.80;;;35.70;44.70;;;;;;5045191;28;20223;-84
2022/06/24 11:54:27;;;;;;;3.75;3.40;;;35.70;44.20;;;;;;5054061;28;20314;-83
2022/06/24 11:56:54;;;;;;;4.18;3.78;;;35.70;44.70;;;;;;5063655;28;20216;-85
2022/06/24 11:59:21;;;;;;;5.68;3.88;;;35.80;44.80;;;;;;5047395;28;20212;-83
2022/06/24 12:01:49;;;;;;;4.10;3.58;;;35.80;43.80;;;;;;5066397;28;20752;-83
2022/06/24 12:04:16;;;;;;;5.47;3.80;;;35.90;44.40;;;;;;5067157;28;20231;-83
2022/06/24 12:06:44;;;;;;;4.15;3.70;;;36.00;44.30;;;;;;5043811;28;20678;-84
2022/06/24 12:09:13;;;;;;;3.97;3.58;;;36.00;43.70;;;;;;5056998;28;20248;-84
2022/06/24 12:11:41;;;;;;;4.47;3.65;;;35.90;43.60;;;;;;5068673;28;20224;-83
2022/06/24 12:14:09;;;;;;;5.05;3.70;;;35.80;43.30;;;;;;5046993;28;20231;-83
2022/06/24 12:16:57;;;;;;;4.97;3.40;;;35.70;43.50;;;;;;5064108;28;20294;-84
2022/06/24 12:19:24;;;;;;;3.95;3.30;;;35.50;43.40;;;;;;5047302;28;20228;-83
2022/06/24 12:21:51;;;;;;;4.70;3.70;;;35.30;43.50;;;;;;5051957;28;20318;-83
2022/06/24 12:24:23;;;;;;;5.65;3.15;;;35.00;43.90;;;;;;5049817;28;20236;-84
2022/06/24 12:26:53;;;;;;;6.80;3.80;;;34.70;44.00;;;;;;5066651;28;20223;-84
2022/06/24 12:29:26;;;;;;;5.80;3.60;;;34.40;44.20;;;;;;5069220;28;20310;-84
2022/06/24 12:31:54;;;;;;;8.52;3.50;;;34.10;44.30;;;;;;5053069;28;20238;-84
2022/06/24 12:34:26;;;;;;;7.40;3.83;;;33.60;44.30;;;;;;5060601;28;20234;-85
2022/06/24 12:36:57;;;;;;;10.35;3.95;;;33.20;47.20;;;;;;5058887;28;20223;-85
2022/06/24 12:39:30;;;;;;;7.00;4.10;;;32.80;48.30;;;;;;5061292;28;20306;-84
2022/06/24 12:41:58;;;;;;;4.68;3.85;;;32.30;50.00;;;;;;5050370;28;20224;-84
2022/06/24 12:44:30;;;;;;;8.32;4.03;;;31.90;50.40;;;;;;5047221;28;20247;-84
2022/06/24 12:52:37;;;;;;;7.55;4.00;;;30.60;53.40;;;;;;5046570;28;20366;-84
2022/06/24 12:55:07;;;;;;;6.30;4.60;;;30.30;54.40;;;;;;5049164;28;20714;-84
2022/06/24 12:57:35;;;;;;;10.43;4.10;;;29.90;55.60;;;;;;5069070;28;20279;-84
2022/06/24 13:00:03;;;;;;;5.15;3.88;;;29.60;55.90;;;;;;5046193;28;20223;-84
2022/06/24 13:02:30;;;;;;;4.40;4.00;;;29.30;55.90;;;;;;5051639;28;20918;-84
2022/06/24 13:04:57;;;;;;;7.07;4.20;;;29.20;56.50;;;;;;5047940;28;20231;-84
2022/06/24 13:07:24;;;;;;;6.25;3.75;;;29.10;56.70;;;;;;5045619;28;20231;-84
2022/06/24 13:09:50;;;;;;;6.60;3.60;;;29.00;57.10;;;;;;5070220;28;21017;-84
2022/06/24 13:12:19;;;;;;;5.07;4.18;;;28.90;57.50;;;;;;5049557;28;20237;-84
2022/06/24 13:14:45;;;;;;;6.18;3.90;;;28.90;57.90;;;;;;5051990;28;20242;-84